This is the latest recevied weather packets stored in our database for station/object VU3KEB-1. If no packets are shown the sender has not sent any weather packets the latest 10 day(s).
| Time | Temp. | Humidity | Pressure | Rain* | Wind** | Luminosity | Snow |
|---|---|---|---|---|---|---|---|
| 1787992097 | 30.56° C | 49% | 1032 hPa | - | - | - | - |
| 1787990883 | 30.56° C | 51% | 1032.6 hPa | - | - | - | - |
| 1787989668 | 30.56° C | 51% | 1032.6 hPa | - | - | - | - |
| 1787988452 | 30° C | 51% | 1032.6 hPa | - | - | - | - |
| 1787987238 | 30° C | 52% | 1033.4 hPa | - | - | - | - |
| 1787986022 | 30° C | 52% | 1034 hPa | - | - | - | - |
| 1787984808 | 29.44° C | 51% | 1034 hPa | - | - | - | - |
| 1787983594 | 28.89° C | 55% | 1034.7 hPa | - | - | - | - |
| 1787982377 | 28.33° C | 55% | 1034.7 hPa | - | - | - | - |
| 1787981157 | 27.78° C | 55% | 1034.7 hPa | - | - | - | - |
| 1787979942 | 27.22° C | 60% | 1035.1 hPa | - | - | - | - |
| 1787978726 | 26.67° C | 60% | 1035.1 hPa | - | - | - | - |
| 1787977511 | 26.11° C | 60% | 1035.1 hPa | - | - | - | - |
| 1787976284 | 25.56° C | 67% | 1035 hPa | - | - | - | - |
| 1787975066 | 25° C | 67% | 1035 hPa | - | - | - | - |
| 1787921606 | 26.11° C | 69% | 1031.7 hPa | - | - | - | - |
| 1787920392 | 26.67° C | 69% | 1031.7 hPa | - | - | - | - |
| 1787919178 | 26.67° C | 70% | 1030.7 hPa | - | - | - | - |
| 1787917964 | 27.22° C | 67% | 1030.9 hPa | - | - | - | - |
| 1787916749 | 27.22° C | 67% | 1030.9 hPa | - | - | - | - |
| 1787915534 | 27.22° C | 61% | 1030.4 hPa | - | - | - | - |
| 1787914320 | 27.78° C | 61% | 1030.4 hPa | - | - | - | - |
| 1787913106 | 28.89° C | 61% | 1030.4 hPa | - | - | - | - |
| 1787911891 | 30.56° C | 49% | 1031 hPa | - | - | - | - |
| 1787910676 | 31.11° C | 49% | 1031 hPa | - | - | - | - |
* Rain since midnight (hover to see other rain measurements)
** Current wind speed in m/s (hover to see current wind gust speed)